Time;durP1;ratioP1;P1;durP2;ratioP2;P2;SDS_P1;SDS_P2;PMS_P1;PMS_P2;Temp;Humidity;BMP_temperature;BMP_pressure;BME280_temperature;BME280_humidity;BME280_pressure;Samples;Min_cycle;Max_cycle;Signal;HPM_P1;HPM_P2
2022/01/28 00:02:14;;;;;;;18.75;9.00;;;;;;;2.62;100.00;100625.69;5589114;31;34632;-67
2022/01/28 00:05:21;;;;;;;19.77;10.10;;;;;;;2.79;99.31;100625.31;5589306;31;34620;-67
2022/01/28 00:08:23;;;;;;;19.33;10.27;;;;;;;2.71;99.49;100622.38;5589171;31;34045;-67
2022/01/28 00:11:26;;;;;;;21.65;10.82;;;;;;;2.69;99.54;100629.53;5588829;31;34645;-67
2022/01/28 00:14:40;;;;;;;20.33;10.48;;;;;;;2.67;99.60;100631.41;5588696;31;34225;-68
2022/01/28 00:41:03;;;;;;;21.17;10.30;;;;;;;2.35;100.00;100602.34;5588445;31;34023;-67
2022/01/28 00:44:06;;;;;;;22.73;11.38;;;;;;;2.48;100.00;100613.59;5590150;31;35263;-67
2022/01/28 00:47:08;;;;;;;19.42;10.25;;;;;;;2.51;100.00;100612.53;5577157;31;34824;-67
2022/01/28 00:50:13;;;;;;;22.35;9.85;;;;;;;2.72;98.97;100628.47;5590890;31;34309;-67
2022/01/28 00:53:15;;;;;;;19.23;10.43;;;;;;;2.80;98.31;100640.09;5590870;31;33949;-67
2022/01/28 00:56:18;;;;;;;20.55;10.38;;;;;;;2.85;97.66;100632.72;5590972;31;34652;-67
2022/01/28 00:59:21;;;;;;;23.90;10.77;;;;;;;2.97;96.62;100638.84;5590914;31;34171;-67
2022/01/28 01:02:24;;;;;;;24.80;10.70;;;;;;;3.03;96.12;100638.38;5590786;31;34080;-67
2022/01/28 01:05:30;;;;;;;19.70;10.02;;;;;;;3.01;95.89;100632.41;5590824;31;34122;-67
2022/01/28 01:08:33;;;;;;;18.17;10.32;;;;;;;3.05;95.78;100610.25;5590736;31;33938;-67
2022/01/28 01:11:39;;;;;;;19.08;9.43;;;;;;;3.10;95.46;100605.50;5591007;31;33983;-65
2022/01/28 01:14:43;;;;;;;20.10;10.05;;;;;;;3.12;95.30;100613.28;5590748;31;35294;-65
2022/01/28 01:17:59;;;;;;;20.37;10.63;;;;;;;3.17;95.03;100616.37;5590843;31;34246;-65
2022/01/28 01:21:07;;;;;;;22.37;9.82;;;;;;;3.17;95.07;100608.53;5591028;31;33993;-65
2022/01/28 01:24:20;;;;;;;20.95;10.35;;;;;;;3.16;95.01;100601.59;5590616;31;33922;-67
2022/01/28 01:27:23;;;;;;;19.58;9.82;;;;;;;3.10;95.16;100597.66;5590543;31;34547;-67
2022/01/28 01:30:28;;;;;;;20.02;9.43;;;;;;;3.23;94.34;100608.91;5590625;31;34125;-67
2022/01/28 01:33:38;;;;;;;18.40;9.65;;;;;;;3.18;94.52;100610.19;5590491;31;35282;-66
2022/01/28 01:36:42;;;;;;;19.92;9.93;;;;;;;3.25;94.41;100616.63;5590537;31;33968;-65
2022/01/28 01:39:45;;;;;;;22.65;9.82;;;;;;;3.33;93.74;100616.91;5590472;31;35262;-65
2022/01/28 01:42:53;;;;;;;19.17;9.10;;;;;;;3.30;93.96;100625.00;5576571;31;33932;-65
2022/01/28 01:52:26;;;;;;;16.95;8.98;;;;;;;3.27;93.36;100584.12;5590368;31;34296;-65
2022/01/28 01:55:31;;;;;;;15.73;8.63;;;;;;;3.31;92.70;100582.94;5575696;31;34006;-66
2022/01/28 01:58:35;;;;;;;14.85;7.80;;;;;;;3.34;92.84;100576.63;5590334;31;34742;-65
2022/01/28 02:01:39;;;;;;;17.85;8.30;;;;;;;3.28;92.34;100566.59;5590217;31;34715;-65
2022/01/28 02:04:42;;;;;;;19.12;8.57;;;;;;;3.28;92.33;100572.69;5590318;31;34290;-65
2022/01/28 02:07:45;;;;;;;17.17;9.07;;;;;;;3.29;92.47;100586.63;5590338;31;34219;-65
2022/01/28 02:10:49;;;;;;;14.52;7.87;;;;;;;3.29;92.79;100586.63;5590166;31;33986;-65
2022/01/28 02:13:52;;;;;;;14.93;7.85;;;;;;;3.26;93.21;100579.81;5590195;31;34667;-65
2022/01/28 02:16:55;;;;;;;17.52;8.50;;;;;;;3.33;92.16;100582.81;5590131;31;35206;-65
2022/01/28 02:19:58;;;;;;;14.57;7.72;;;;;;;3.40;91.59;100578.78;5590035;31;34185;-65
2022/01/28 02:23:01;;;;;;;15.90;6.82;;;;;;;3.48;90.63;100577.25;5590124;31;33988;-65
2022/01/28 02:26:05;;;;;;;11.38;6.50;;;;;;;3.40;90.63;100576.16;5589947;31;34402;-66
2022/01/28 02:29:14;;;;;;;11.73;6.45;;;;;;;3.44;90.06;100562.69;5589833;31;33889;-66
2022/01/28 02:32:17;;;;;;;12.10;6.68;;;;;;;3.50;89.26;100529.91;5589985;31;33977;-65
2022/01/28 02:35:21;;;;;;;10.68;6.10;;;;;;;3.34;90.04;100543.34;5576340;31;35274;-66
2022/01/28 02:38:24;;;;;;;10.65;5.65;;;;;;;3.36;89.92;100562.44;5590093;31;34044;-65
2022/01/28 02:41:32;;;;;;;10.88;5.78;;;;;;;3.48;88.69;100572.00;5576271;31;33948;-66
2022/01/28 02:44:54;;;;;;;11.20;5.45;;;;;;;3.55;88.39;100561.84;5590176;31;33970;-65
2022/01/28 02:48:03;;;;;;;7.50;4.57;;;;;;;3.53;88.47;100555.06;5589909;31;33919;-66
2022/01/28 02:54:14;;;;;;;6.50;4.03;;;;;;;3.79;86.21;100538.13;5589886;31;33931;-65
2022/01/28 02:57:24;;;;;;;6.43;3.80;;;;;;;3.95;85.12;100535.97;5589779;31;33987;-65
2022/01/28 03:00:26;;;;;;;7.15;3.47;;;;;;;4.11;83.72;100540.84;5589833;31;34050;-65
2022/01/28 03:03:30;;;;;;;7.22;4.03;;;;;;;4.15;83.54;100544.88;5589827;31;34032;-66
2022/01/28 03:06:33;;;;;;;6.40;3.35;;;;;;;4.17;83.28;100546.41;5589371;31;33997;-65
2022/01/28 03:13:59;;;;;;;6.78;3.50;;;;;;;4.30;82.21;100560.25;5589988;31;35102;-66
2022/01/28 03:16:23;;;;;;;5.85;3.25;;;;;;;4.26;82.82;100565.87;5582571;31;33939;-65
2022/01/28 03:19:30;;;;;;;5.22;3.50;;;;;;;4.16;83.27;100567.56;5589691;31;33967;-65
2022/01/28 03:22:33;;;;;;;4.22;2.80;;;;;;;4.14;83.32;100551.09;5589580;31;34094;-65
2022/01/28 03:25:37;;;;;;;9.15;2.50;;;;;;;4.26;82.62;100553.56;5589525;31;34123;-66
2022/01/28 03:28:40;;;;;;;5.07;2.60;;;;;;;4.33;82.28;100551.28;5589951;31;34026;-66
2022/01/28 03:31:43;;;;;;;3.03;2.08;;;;;;;4.41;81.72;100537.50;5575634;31;34304;-66
2022/01/28 03:34:46;;;;;;;3.97;2.67;;;;;;;4.45;81.21;100559.97;5589442;31;33677;-65
2022/01/28 03:37:53;;;;;;;4.37;2.45;;;;;;;4.44;81.40;100553.03;5589347;31;33913;-66
2022/01/28 03:40:56;;;;;;;4.03;2.75;;;;;;;4.45;80.79;100539.78;5575508;31;35301;-65
2022/01/28 03:44:00;;;;;;;3.67;2.08;;;;;;;4.43;80.81;100562.72;5589416;31;33976;-66
2022/01/28 03:47:04;;;;;;;3.40;2.28;;;;;;;4.50;80.60;100549.94;5589331;31;34105;-66
2022/01/28 03:50:07;;;;;;;4.12;2.40;;;;;;;4.53;80.17;100547.03;5589332;31;33954;-66
2022/01/28 03:53:10;;;;;;;6.50;2.40;;;;;;;4.52;80.38;100577.72;5589124;31;35400;-66
2022/01/28 03:56:15;;;;;;;3.53;2.42;;;;;;;4.56;79.93;100559.91;5589223;31;33956;-66
2022/01/28 03:59:18;;;;;;;3.17;2.20;;;;;;;4.52;80.25;100590.03;5575408;31;34584;-66
2022/01/28 04:02:26;;;;;;;3.10;2.37;;;;;;;4.68;79.54;100585.19;5589506;31;34068;-67
2022/01/28 04:12:12;;;;;;;5.18;2.30;;;;;;;4.66;79.11;100584.47;5588810;31;34738;-66
2022/01/28 04:18:24;;;;;;;4.78;2.30;;;;;;;4.60;79.72;100590.25;5589863;31;34682;-67
2022/01/28 04:21:29;;;;;;;5.03;2.65;;;;;;;4.52;80.27;100580.34;5591063;31;34056;-68
2022/01/28 04:24:32;;;;;;;3.30;2.37;;;;;;;4.43;80.60;100588.12;5591377;31;34192;-66
2022/01/28 04:27:34;;;;;;;4.30;2.50;;;;;;;4.31;80.90;100568.94;5590927;31;33988;-66
2022/01/28 04:30:37;;;;;;;3.62;2.20;;;;;;;4.22;81.02;100562.63;5590850;31;33916;-66
2022/01/28 04:33:45;;;;;;;4.60;2.55;;;;;;;4.14;81.08;100572.09;5591019;31;33937;-67
2022/01/28 04:40:24;;;;;;;4.97;2.72;;;;;;;4.13;80.63;100586.16;5590828;31;34004;-68
2022/01/28 04:43:38;;;;;;;4.10;2.70;;;;;;;4.03;81.26;100582.59;5590938;31;34295;-66
2022/01/28 05:02:24;;;;;;;3.72;2.62;;;;;;;3.73;82.89;100622.56;5591177;31;33918;-67
2022/01/28 05:28:51;;;;;;;3.85;1.60;;;;;;;3.43;85.07;100650.19;5590227;31;34287;-65
2022/01/28 05:31:54;;;;;;;2.55;1.90;;;;;;;3.50;84.61;100658.44;5570829;32;33929;-65
2022/01/28 05:34:57;;;;;;;2.17;1.65;;;;;;;3.58;83.94;100657.87;5570811;32;34573;-64
2022/01/28 05:37:59;;;;;;;2.70;1.45;;;;;;;3.54;84.18;100659.84;5570862;32;34652;-64
2022/01/28 05:41:02;;;;;;;2.60;1.70;;;;;;;3.65;83.61;100657.25;5570899;32;33904;-66
2022/01/28 05:44:05;;;;;;;2.37;1.60;;;;;;;3.63;83.79;100671.47;5570866;32;35289;-65
2022/01/28 05:47:13;;;;;;;2.65;1.42;;;;;;;3.47;84.69;100667.37;5571653;32;34022;-67
2022/01/28 05:50:16;;;;;;;2.08;1.50;;;;;;;3.62;84.27;100673.25;5570243;32;34015;-65
2022/01/28 05:53:19;;;;;;;3.10;1.50;;;;;;;3.72;83.92;100689.97;5570640;32;33998;-65
2022/01/28 05:56:21;;;;;;;1.75;1.33;;;;;;;3.58;84.93;100686.72;5570650;32;33984;-66
2022/01/28 05:59:24;;;;;;;3.25;1.50;;;;;;;3.57;85.08;100683.25;5570869;32;34098;-65
2022/01/28 06:02:27;;;;;;;2.10;1.42;;;;;;;3.57;85.26;100687.66;5570324;32;34019;-65
2022/01/28 06:05:33;;;;;;;2.55;1.70;;;;;;;3.66;84.92;100700.09;5570602;32;33926;-65
2022/01/28 06:08:35;;;;;;;2.95;1.60;;;;;;;3.60;85.38;100709.25;5557140;32;33986;-66
2022/01/28 06:11:39;;;;;;;3.47;1.75;;;;;;;3.54;85.66;100693.12;5570369;32;34914;-65
2022/01/28 06:14:41;;;;;;;2.50;1.70;;;;;;;3.42;86.16;100693.09;5571024;32;34046;-65
2022/01/28 06:17:44;;;;;;;2.87;2.03;;;;;;;3.57;85.70;100711.28;5570593;32;33524;-66
2022/01/28 06:20:47;;;;;;;4.68;1.83;;;;;;;3.60;85.37;100711.87;5570344;32;35268;-65
2022/01/28 06:23:52;;;;;;;3.53;1.77;;;;;;;3.46;86.10;100712.06;5556631;32;34017;-67
2022/01/28 06:26:54;;;;;;;3.22;1.58;;;;;;;3.61;85.74;100733.69;5570163;32;33938;-67
2022/01/28 06:29:57;;;;;;;2.17;1.62;;;;;;;3.83;84.56;100725.88;5576868;31;34243;-66
2022/01/28 06:33:00;;;;;;;2.75;1.87;;;;;;;3.93;83.68;100729.47;5589912;31;34541;-66
2022/01/28 06:36:03;;;;;;;2.90;1.60;;;;;;;3.99;83.56;100742.13;5576152;31;35239;-66
2022/01/28 06:39:06;;;;;;;2.78;1.60;;;;;;;4.18;82.19;100746.81;5576315;31;35286;-66
2022/01/28 06:42:09;;;;;;;2.50;1.40;;;;;;;4.15;81.97;100747.06;5575271;31;34092;-64
2022/01/28 06:45:12;;;;;;;2.25;1.40;;;;;;;4.24;81.28;100744.56;5575586;31;34668;-64
2022/01/28 06:48:19;;;;;;;4.80;1.60;;;;;;;4.29;80.08;100746.81;5589906;31;34025;-66
2022/01/28 06:51:21;;;;;;;2.25;1.27;;;;;;;4.41;79.66;100750.28;5589661;31;35219;-67
2022/01/28 06:54:24;;;;;;;3.80;1.62;;;;;;;4.38;79.30;100748.75;5589608;31;35294;-65
2022/01/28 06:57:28;;;;;;;2.90;1.52;;;;;;;4.36;78.97;100734.88;5589463;31;35436;-65
2022/01/28 07:00:36;;;;;;;2.53;1.30;;;;;;;4.29;79.19;100734.53;5589263;31;34307;-65
2022/01/28 07:03:39;;;;;;;1.55;1.10;;;;;;;4.29;78.58;100715.31;5589720;31;33916;-65
2022/01/28 07:06:42;;;;;;;2.08;1.23;;;;;;;4.29;78.31;100718.78;5589520;31;34589;-65
2022/01/28 07:09:48;;;;;;;2.15;1.10;;;;;;;4.20;78.36;100711.63;5575960;31;33949;-64
2022/01/28 07:12:54;;;;;;;3.03;1.42;;;;;;;4.19;78.12;100698.59;5589434;31;35208;-64
2022/01/28 07:15:57;;;;;;;2.40;1.30;;;;;;;4.16;77.51;100707.56;5589431;31;34640;-65
2022/01/28 07:19:00;;;;;;;2.08;1.10;;;;;;;4.24;76.55;100689.41;5589236;31;34061;-65
2022/01/28 07:22:03;;;;;;;2.95;1.20;;;;;;;4.25;75.98;100729.63;5589218;31;33834;-65
2022/01/28 07:25:06;;;;;;;2.97;1.45;;;;;;;4.26;75.72;100742.63;5589218;31;35344;-65
2022/01/28 07:28:09;;;;;;;1.83;1.10;;;;;;;4.26;75.80;100745.25;5588672;31;34670;-65
2022/01/28 07:31:14;;;;;;;2.97;1.35;;;;;;;4.27;75.56;100739.06;5588884;31;34788;-65
2022/01/28 07:34:17;;;;;;;1.92;1.02;;;;;;;4.25;75.46;100737.53;5589175;31;33849;-65
2022/01/28 07:37:20;;;;;;;4.47;1.35;;;;;;;4.34;74.61;100742.06;5575858;31;33964;-65
2022/01/28 07:40:24;;;;;;;2.65;1.48;;;;;;;4.34;74.65;100734.19;5589100;31;34675;-65
2022/01/28 07:43:27;;;;;;;2.17;1.30;;;;;;;4.49;73.48;100732.16;5589311;31;34266;-64
2022/01/28 07:46:30;;;;;;;3.28;1.02;;;;;;;4.50;73.52;100731.19;5589204;31;34345;-64
2022/01/28 07:49:33;;;;;;;6.65;1.40;;;;;;;4.63;72.15;100724.00;5589177;31;34663;-65
2022/01/28 07:52:36;;;;;;;5.20;1.15;;;;;;;4.63;71.64;100711.72;5575314;31;34005;-65
2022/01/28 07:55:39;;;;;;;2.17;0.93;;;;;;;4.64;70.87;100710.75;5589146;31;34650;-66
2022/01/28 07:58:42;;;;;;;2.60;1.20;;;;;;;4.66;70.79;100724.59;5589128;31;33959;-66
2022/01/28 08:01:45;;;;;;;5.68;1.00;;;;;;;4.72;70.26;100724.13;5588909;31;34134;-65
2022/01/28 08:04:48;;;;;;;3.60;0.93;;;;;;;4.82;69.00;100735.56;5589210;31;34024;-66
2022/01/28 08:07:52;;;;;;;6.05;0.82;;;;;;;4.97;68.46;100733.50;5589068;31;33926;-65
2022/01/28 08:10:55;;;;;;;5.00;0.73;;;;;;;5.23;67.42;100741.91;5588743;31;33969;-65
2022/01/28 08:13:58;;;;;;;3.20;1.00;;;;;;;5.19;66.32;100756.25;5588993;31;34577;-65
2022/01/28 08:17:01;;;;;;;3.50;0.85;;;;;;;5.15;66.27;100744.31;5588751;31;34589;-66
2022/01/28 08:20:05;;;;;;;5.00;0.98;;;;;;;4.99;66.50;100744.72;5588783;31;33931;-66
2022/01/28 08:23:08;;;;;;;2.95;1.20;;;;;;;5.00;66.84;100740.28;5574932;31;34561;-67
2022/01/28 08:26:11;;;;;;;1.65;0.90;;;;;;;5.06;66.47;100721.41;5588392;31;34439;-67
2022/01/28 08:29:14;;;;;;;3.45;0.68;;;;;;;4.97;66.31;100732.66;5588707;31;33914;-65
2022/01/28 08:32:17;;;;;;;1.48;0.90;;;;;;;4.99;65.65;100707.91;5588267;31;34528;-68
2022/01/28 08:35:30;;;;;;;12.95;1.42;;;;;;;5.02;65.17;100712.09;5574636;31;34699;-65
2022/01/28 08:38:39;;;;;;;5.20;1.12;;;;;;;5.03;64.57;100703.25;5588351;31;34115;-66
2022/01/28 08:41:43;;;;;;;0.98;0.62;;;;;;;5.06;64.16;100701.22;5588421;31;34119;-66
2022/01/28 08:44:50;;;;;;;6.90;0.70;;;;;;;5.13;63.00;100705.00;5575029;31;35112;-66
2022/01/28 08:47:53;;;;;;;6.97;1.25;;;;;;;5.17;62.68;100714.31;5588095;31;33975;-66
2022/01/28 08:50:56;;;;;;;3.62;0.60;;;;;;;5.19;62.21;100695.78;5588172;31;34036;-65
2022/01/28 08:53:59;;;;;;;3.80;0.60;;;;;;;5.21;62.33;100704.38;5588214;31;33961;-64
2022/01/28 08:57:01;;;;;;;3.35;0.80;;;;;;;5.25;61.84;100706.62;5587971;31;34647;-66
2022/01/28 09:00:16;;;;;;;2.62;1.00;;;;;;;5.32;61.13;100732.44;5588032;31;34098;-67
2022/01/28 09:03:20;;;;;;;10.43;0.77;;;;;;;5.38;60.27;100735.37;5574317;31;35091;-66
2022/01/28 09:06:23;;;;;;;6.93;0.68;;;;;;;5.37;60.42;100746.06;5590813;31;35121;-68
2022/01/28 09:09:26;;;;;;;4.25;0.70;;;;;;;5.33;60.15;100719.16;5590834;31;34622;-68
2022/01/28 09:12:38;;;;;;;10.82;0.90;;;;;;;5.39;59.71;100730.97;5590710;31;34102;-68
2022/01/28 09:15:41;;;;;;;9.55;0.75;;;;;;;5.37;59.34;100731.13;5590746;31;34325;-68
2022/01/28 09:18:45;;;;;;;6.87;0.90;;;;;;;5.40;59.33;100724.75;5590684;31;33984;-68
2022/01/28 09:21:47;;;;;;;34.17;1.85;;;;;;;5.42;59.40;100713.12;5590677;31;33972;-67
2022/01/28 09:24:51;;;;;;;3.80;0.85;;;;;;;5.44;59.16;100705.13;5590916;31;34597;-67
2022/01/28 09:27:55;;;;;;;1.67;0.70;;;;;;;5.50;59.36;100739.66;5590479;31;34567;-67
2022/01/28 09:30:57;;;;;;;9.95;0.60;;;;;;;5.56;59.09;100754.94;5590496;31;34681;-65
2022/01/28 09:34:00;;;;;;;2.22;0.70;;;;;;;5.54;59.49;100763.91;5590372;31;34839;-66
2022/01/28 09:37:04;;;;;;;5.80;0.70;;;;;;;5.56;59.57;100762.00;5576649;31;34500;-65
2022/01/28 09:40:07;;;;;;;3.87;0.77;;;;;;;5.60;59.76;100737.94;5590286;31;33932;-65
2022/01/28 09:43:10;;;;;;;7.05;0.75;;;;;;;5.55;60.20;100732.22;5590511;31;34357;-66
2022/01/28 09:46:13;;;;;;;4.43;0.77;;;;;;;5.60;60.01;100718.69;5590348;31;34672;-65
2022/01/28 09:49:16;;;;;;;1.17;0.50;;;;;;;5.59;60.04;100733.62;5590057;31;34344;-64
2022/01/28 09:52:19;;;;;;;2.17;0.47;;;;;;;5.61;59.59;100715.09;5590023;31;33887;-67
2022/01/28 09:55:24;;;;;;;8.32;0.80;;;;;;;5.66;59.27;100744.50;5590315;31;33983;-68
2022/01/28 09:58:26;;;;;;;1.12;0.62;;;;;;;5.69;58.71;100745.06;5576529;31;33838;-66
2022/01/28 10:01:29;;;;;;;3.20;0.60;;;;;;;5.69;58.70;100752.97;5590040;31;34359;-66
2022/01/28 10:04:33;;;;;;;9.63;1.12;;;;;;;5.70;57.94;100756.44;5590064;31;34208;-67
2022/01/28 10:07:35;;;;;;;3.45;0.68;;;;;;;5.88;57.26;100748.81;5590125;31;34007;-68
2022/01/28 10:10:55;;;;;;;5.95;0.60;;;;;;;6.02;56.11;100766.94;5590210;31;33815;-68
2022/01/28 10:14:07;;;;;;;4.10;0.77;;;;;;;6.08;55.72;100748.81;5576398;31;34300;-65
2022/01/28 10:17:10;;;;;;;2.55;0.62;;;;;;;6.34;55.33;100780.03;5588904;31;35255;-65
2022/01/28 10:20:13;;;;;;;4.78;0.88;;;;;;;6.39;54.79;100786.53;5576175;31;34690;-64
2022/01/28 10:23:16;;;;;;;4.93;0.47;;;;;;;6.61;53.68;100805.81;5589774;31;34959;-66
2022/01/28 10:26:27;;;;;;;7.72;0.80;;;;;;;6.29;54.43;100772.50;5581773;31;252238;-66
2022/01/28 10:29:32;;;;;;;4.50;0.73;;;;;;;6.29;54.87;100779.56;5589912;31;34539;-66
2022/01/28 10:32:34;;;;;;;3.42;0.70;;;;;;;6.35;54.40;100768.50;5589624;31;33949;-65
2022/01/28 10:35:38;;;;;;;3.17;0.80;;;;;;;6.45;53.93;100772.84;5589721;31;34859;-65
2022/01/28 10:38:41;;;;;;;8.15;0.82;;;;;;;6.44;54.20;100778.25;5590107;31;34345;-65
2022/01/28 10:41:49;;;;;;;10.27;0.90;;;;;;;6.55;53.80;100757.06;5591968;31;34602;-64
2022/01/28 10:45:10;;;;;;;11.10;0.90;;;;;;;6.72;52.91;100745.91;5594643;31;34884;-68
2022/01/28 10:48:22;;;;;;;4.93;0.82;;;;;;;6.84;52.42;100770.34;5591592;31;34322;-65
2022/01/28 10:51:41;;;;;;;2.95;0.60;;;;;;;6.96;51.97;100777.22;5590965;31;34001;-66
2022/01/28 10:54:57;;;;;;;3.92;0.77;;;;;;;6.75;51.56;100757.97;5589727;31;34717;-65
2022/01/28 10:58:12;;;;;;;4.93;0.98;;;;;;;6.62;51.09;100750.31;5575860;31;33943;-65
2022/01/28 11:01:15;;;;;;;4.32;0.70;;;;;;;6.89;50.12;100776.06;5589756;31;34545;-66
2022/01/28 11:04:19;;;;;;;5.07;0.70;;;;;;;6.77;49.98;100777.16;5589740;31;33986;-67
2022/01/28 11:07:23;;;;;;;2.50;0.43;;;;;;;6.71;49.32;100769.78;5589778;31;34566;-66
2022/01/28 11:10:26;;;;;;;6.68;0.70;;;;;;;6.67;49.21;100774.47;5589115;31;34709;-66
2022/01/28 11:13:30;;;;;;;3.45;0.60;;;;;;;6.81;49.27;100789.09;5589533;31;35185;-66
2022/01/28 11:16:33;;;;;;;4.70;0.75;;;;;;;6.85;49.43;100778.16;5589539;31;33927;-66
2022/01/28 11:19:38;;;;;;;3.50;0.70;;;;;;;6.88;49.68;100777.88;5589491;31;34173;-67
2022/01/28 11:22:59;;;;;;;2.22;0.50;;;;;;;6.80;50.47;100796.16;5589594;31;34445;-65
2022/01/28 11:26:20;;;;;;;2.58;0.65;;;;;;;6.53;51.51;100780.91;5588851;31;35263;-67
2022/01/28 11:29:25;;;;;;;4.07;0.90;;;;;;;6.45;52.29;100798.38;5588987;31;34744;-65
2022/01/28 11:32:28;;;;;;;7.57;0.70;;;;;;;6.44;52.83;100786.97;5589203;31;34717;-65
2022/01/28 11:35:49;;;;;;;2.75;0.40;;;;;;;6.39;52.94;100781.28;5589552;31;35198;-65
2022/01/28 11:38:52;;;;;;;3.05;0.68;;;;;;;6.35;53.07;100786.94;5588983;31;35483;-65
2022/01/28 11:42:04;;;;;;;1.45;0.57;;;;;;;6.26;53.80;100790.34;5589088;31;33906;-67
2022/01/28 11:45:10;;;;;;;2.67;0.57;;;;;;;6.35;54.04;100792.22;5575559;31;34068;-68
2022/01/28 11:48:13;;;;;;;3.33;0.60;;;;;;;6.33;53.76;100781.81;5589007;31;34733;-65
2022/01/28 11:51:16;;;;;;;2.08;0.90;;;;;;;6.42;53.89;100781.03;5589236;31;34212;-65
2022/01/28 11:54:20;;;;;;;4.30;0.82;;;;;;;6.27;53.98;100763.88;5589220;31;35251;-66
2022/01/28 11:57:26;;;;;;;5.40;0.73;;;;;;;6.22;54.66;100804.75;5588797;31;33964;-67
2022/01/28 12:00:47;;;;;;;3.12;0.75;;;;;;;6.02;55.50;100794.09;5589007;31;34115;-66
2022/01/28 12:04:29;;;;;;;4.70;1.23;;;;;;;6.09;55.69;100803.19;5575400;31;35168;-69
2022/01/28 12:07:32;;;;;;;2.47;0.90;;;;;;;5.94;56.77;100819.41;5572862;31;34316;-65
2022/01/28 12:10:41;;;;;;;2.92;0.57;;;;;;;5.84;57.23;100845.62;5588783;31;34757;-67
2022/01/28 12:14:00;;;;;;;5.85;0.93;;;;;;;5.77;57.83;100825.19;5588985;31;34733;-66
2022/01/28 12:17:39;;;;;;;5.45;0.88;;;;;;;5.89;57.88;100822.44;5589185;31;34269;-65
2022/01/28 12:21:02;;;;;;;5.20;0.75;;;;;;;6.11;57.26;100821.47;5559716;31;34262;-67
2022/01/28 12:24:20;;;;;;;2.87;0.77;;;;;;;6.11;56.96;100818.81;5588880;31;33985;-67
2022/01/28 12:27:33;;;;;;;3.55;1.40;;;;;;;6.22;57.02;100813.50;5588630;31;33999;-68
2022/01/28 12:30:37;;;;;;;5.18;0.90;;;;;;;6.31;56.93;100819.78;5588501;31;34589;-67
2022/01/28 12:33:42;;;;;;;3.12;0.93;;;;;;;6.32;57.09;100814.41;5588352;31;33837;-68
2022/01/28 12:36:46;;;;;;;4.35;1.08;;;;;;;6.09;57.76;100818.97;5588484;31;34844;-68
2022/01/28 12:40:03;;;;;;;2.22;0.80;;;;;;;6.01;58.27;100828.47;5576434;31;34021;-67
2022/01/28 12:43:07;;;;;;;3.97;0.90;;;;;;;5.98;58.33;100821.66;5590696;31;34206;-67
2022/01/28 12:46:13;;;;;;;4.68;1.00;;;;;;;5.89;58.99;100819.78;5590949;31;34247;-67
2022/01/28 12:49:16;;;;;;;4.20;0.80;;;;;;;5.90;59.07;100825.91;5590773;31;34563;-67
2022/01/28 12:52:19;;;;;;;3.35;0.88;;;;;;;5.88;59.21;100815.47;5577332;31;34020;-65
2022/01/28 12:55:33;;;;;;;2.53;0.80;;;;;;;5.91;58.89;100812.59;5591164;31;33960;-65
2022/01/28 12:58:46;;;;;;;4.00;0.85;;;;;;;5.98;58.39;100808.50;5590794;31;34668;-65
2022/01/28 13:01:56;;;;;;;5.97;1.08;;;;;;;6.06;58.22;100823.66;5590592;31;35227;-64
2022/01/28 13:11:27;;;;;;;6.10;1.05;;;;;;;7.02;55.49;100812.78;5590756;31;34155;-67
2022/01/28 13:14:33;;;;;;;6.00;1.20;;;;;;;7.47;54.03;100834.25;5590309;31;34899;-67
2022/01/28 13:17:39;;;;;;;8.25;1.45;;;;;;;7.41;54.07;100841.72;5590657;31;34321;-66
2022/01/28 13:20:42;;;;;;;4.15;0.95;;;;;;;7.73;53.32;100827.47;5577238;31;33913;-68
2022/01/28 13:23:45;;;;;;;4.65;1.05;;;;;;;7.80;52.71;100849.69;5576844;31;34623;-67
2022/01/28 13:26:56;;;;;;;5.68;1.20;;;;;;;7.67;52.96;100839.41;5576955;31;34876;-67
2022/01/28 13:29:59;;;;;;;;;;;;;;;7.49;53.14;100848.16;5590940;31;35225;-67
2022/01/28 13:33:10;;;;;;;5.72;1.05;;;;;;;7.19;53.90;100849.88;5563966;31;35008;-66
2022/01/28 13:36:13;;;;;;;2.37;0.80;;;;;;;7.22;54.44;100839.06;5590547;31;35185;-65
2022/01/28 13:39:20;;;;;;;2.30;1.10;;;;;;;7.51;53.08;100846.19;5589986;31;33987;-65
2022/01/28 13:42:23;;;;;;;4.62;0.82;;;;;;;7.32;53.87;100862.81;5590217;31;33982;-67
2022/01/28 13:45:36;;;;;;;2.85;0.90;;;;;;;7.57;53.32;100851.78;5589985;31;34279;-68
2022/01/28 13:48:39;;;;;;;5.65;0.90;;;;;;;7.63;52.90;100863.59;5590362;31;34028;-65
2022/01/28 13:51:42;;;;;;;5.15;0.80;;;;;;;7.31;53.72;100869.91;5590055;31;34026;-67
2022/01/28 13:54:45;;;;;;;6.20;1.17;;;;;;;7.03;54.42;100860.09;5590593;31;33989;-65
2022/01/28 13:57:48;;;;;;;7.25;1.00;;;;;;;6.78;55.33;100853.47;5590319;31;34071;-66
2022/01/28 14:00:52;;;;;;;2.28;0.90;;;;;;;6.85;55.27;100846.72;5590134;31;33617;-67
2022/01/28 14:04:01;;;;;;;5.97;1.17;;;;;;;6.51;56.41;100859.31;5589958;31;33892;-66
2022/01/28 14:07:18;;;;;;;4.57;0.90;;;;;;;6.16;57.50;100845.62;5590041;31;34025;-67
2022/01/28 14:10:21;;;;;;;2.62;0.85;;;;;;;6.15;57.87;100864.22;5589869;31;33981;-66
2022/01/28 14:13:24;;;;;;;3.37;0.98;;;;;;;5.93;58.81;100859.88;5589775;31;33944;-65
2022/01/28 14:16:27;;;;;;;4.28;1.10;;;;;;;5.83;59.09;100849.22;5589913;31;34256;-65
2022/01/28 14:19:33;;;;;;;2.37;0.90;;;;;;;5.88;59.25;100864.69;5589968;31;34073;-65
2022/01/28 14:22:42;;;;;;;6.68;1.23;;;;;;;5.78;59.65;100869.81;5589801;31;34390;-65
2022/01/28 14:25:45;;;;;;;4.22;1.12;;;;;;;5.74;59.64;100873.69;5589827;31;33972;-65
2022/01/28 14:29:20;;;;;;;5.45;1.10;;;;;;;5.82;59.34;100870.41;5589934;31;34620;-65
2022/01/28 14:32:15;;;;;;;2.62;1.10;;;;;;;5.81;59.72;100879.28;5589692;31;33975;-65
2022/01/28 14:35:17;;;;;;;3.33;1.10;;;;;;;5.76;59.64;100876.19;5589701;31;34297;-65
2022/01/28 14:38:20;;;;;;;4.18;1.10;;;;;;;5.72;59.96;100877.37;5589983;31;35189;-65
2022/01/28 14:41:23;;;;;;;4.28;1.23;;;;;;;5.71;60.00;100870.47;5589714;31;33926;-65
2022/01/28 14:44:35;;;;;;;5.95;1.20;;;;;;;5.74;59.96;100870.19;5589596;31;34592;-65
2022/01/28 14:47:38;;;;;;;8.13;1.00;;;;;;;5.77;59.86;100862.03;5589407;31;34078;-65
2022/01/28 14:50:41;;;;;;;2.53;0.98;;;;;;;5.85;59.49;100875.44;5589830;31;34368;-65
2022/01/28 14:53:44;;;;;;;4.93;1.02;;;;;;;5.74;59.70;100876.31;5575809;31;35156;-67
2022/01/28 14:56:47;;;;;;;4.15;1.00;;;;;;;5.62;60.20;100875.50;5589809;31;34719;-68
2022/01/28 14:59:50;;;;;;;2.65;0.77;;;;;;;5.66;60.04;100884.81;5589450;31;34000;-66
2022/01/28 15:02:53;;;;;;;4.68;1.30;;;;;;;5.71;60.01;100873.09;5588821;31;34037;-66
2022/01/28 15:05:56;;;;;;;2.53;0.85;;;;;;;5.71;60.27;100887.09;5589774;31;33874;-68
2022/01/28 15:09:01;;;;;;;3.05;0.90;;;;;;;5.66;60.29;100915.59;5575747;31;35223;-68
2022/01/28 15:12:06;;;;;;;11.93;1.10;;;;;;;5.63;60.29;100934.22;5589372;31;34436;-64
2022/01/28 15:15:09;;;;;;;7.28;1.02;;;;;;;5.51;61.28;100937.84;5589360;31;34387;-66
2022/01/28 15:18:12;;;;;;;3.80;0.90;;;;;;;5.37;61.70;100922.34;5589284;31;34062;-65
2022/01/28 15:21:15;;;;;;;6.32;1.00;;;;;;;5.33;61.92;100936.66;5589602;31;33916;-65
2022/01/28 15:24:20;;;;;;;4.03;1.10;;;;;;;5.27;62.33;100940.62;5589316;31;34190;-65
2022/01/28 15:27:23;;;;;;;3.22;1.05;;;;;;;5.30;62.33;100950.91;5563170;31;33986;-66
2022/01/28 15:37:30;;;;;;;6.03;1.00;;;;;;;5.20;62.97;100957.84;5589151;31;34131;-66
2022/01/28 15:40:32;;;;;;;7.18;1.37;;;;;;;5.13;63.06;100949.56;5589154;31;34571;-64
2022/01/28 15:43:35;;;;;;;5.87;1.35;;;;;;;5.15;63.06;100944.19;5589437;31;34277;-65
2022/01/28 15:46:39;;;;;;;2.53;1.15;;;;;;;5.12;63.16;100954.97;5589162;31;33895;-65
2022/01/28 15:49:42;;;;;;;4.85;1.17;;;;;;;5.05;63.16;100941.44;5588809;31;34914;-65
2022/01/28 15:52:48;;;;;;;3.60;1.10;;;;;;;5.05;63.38;100945.87;5589205;31;34611;-65
2022/01/28 15:55:51;;;;;;;2.65;1.10;;;;;;;4.97;63.55;100945.63;5589003;31;34067;-66
2022/01/28 15:58:54;;;;;;;4.93;1.05;;;;;;;4.95;63.92;100937.84;5588980;31;33994;-67
2022/01/28 16:01:58;;;;;;;4.70;1.17;;;;;;;4.93;63.98;100966.06;5589025;31;34577;-67
2022/01/28 16:05:02;;;;;;;8.20;1.75;;;;;;;4.92;63.80;100956.50;5588787;31;34662;-67
2022/01/28 16:08:06;;;;;;;3.37;0.98;;;;;;;4.90;63.78;100958.41;5588666;31;34673;-68
2022/01/28 16:17:37;;;;;;;6.55;1.20;;;;;;;4.85;63.77;100973.69;5588873;31;33395;-67
2022/01/28 16:20:40;;;;;;;2.20;1.00;;;;;;;4.79;64.30;100955.78;5588698;31;34068;-65